Time,TemperatureF,DewpointF,PressureIn,WindDirection,WindDirectionDegrees,WindSpeedMPH,WindSpeedGustMPH,Humidity,HourlyPrecipIn,Conditions,Clouds,dailyrainin,SoftwareType,DateUTC
2013-02-23 00:03:00,46.1,41.0,30.20,WSW,238,0.0,-999.0,82,-99.99,,,0.00,weatherlink.com 1.10,2013-02-23 08:03:00,
2013-02-23 00:18:00,46.0,41.0,30.20,WSW,238,0.0,-999.0,82,-99.99,,,0.00,weatherlink.com 1.10,2013-02-23 08:18:00,
2013-02-23 00:33:00,46.8,41.0,30.20,West,271,1.0,-999.0,79,-99.99,,,0.00,weatherlink.com 1.10,2013-02-23 08:33:00,
2013-02-23 00:48:00,47.6,41.0,30.20,West,281,0.0,-999.0,77,-99.99,,,0.00,weatherlink.com 1.10,2013-02-23 08:48:00,
2013-02-23 01:03:00,47.2,41.0,30.20,West,281,0.0,-999.0,78,-99.99,,,0.00,weatherlink.com 1.10,2013-02-23 09:03:00,
2013-02-23 01:18:00,47.2,42.0,30.19,West,281,0.0,-999.0,81,-99.99,,,0.00,weatherlink.com 1.10,2013-02-23 09:18:00,
2013-02-23 01:33:00,47.4,42.0,30.19,West,281,1.0,-999.0,82,-99.99,,,0.00,weatherlink.com 1.10,2013-02-23 09:33:00,
2013-02-23 01:48:00,47.9,43.0,30.18,West,263,0.0,-999.0,83,-99.99,,,0.00,weatherlink.com 1.10,2013-02-23 09:48:00,
2013-02-23 02:03:00,48.0,43.0,30.18,West,263,0.0,-999.0,83,-99.99,,,0.00,weatherlink.com 1.10,2013-02-23 10:03:00,
2013-02-23 02:18:00,48.0,43.0,30.17,WSW,243,0.0,-999.0,84,-99.99,,,0.00,weatherlink.com 1.10,2013-02-23 10:18:00,
2013-02-23 02:33:00,47.5,43.0,30.17,WSW,239,3.0,-999.0,85,-99.99,,,0.00,weatherlink.com 1.10,2013-02-23 10:33:00,
2013-02-23 02:48:00,47.2,43.0,30.17,West,259,0.0,-999.0,86,-99.99,,,0.00,weatherlink.com 1.10,2013-02-23 10:48:00,
2013-02-23 03:03:00,47.6,44.0,30.16,West,267,5.0,-999.0,88,-99.99,,,0.00,weatherlink.com 1.10,2013-02-23 11:03:00,
2013-02-23 03:18:00,47.8,44.0,30.16,WNW,284,3.0,-999.0,87,-99.99,,,0.00,weatherlink.com 1.10,2013-02-23 11:18:00,
2013-02-23 03:33:00,47.3,43.0,30.16,North,355,0.0,-999.0,86,-99.99,,,0.00,weatherlink.com 1.10,2013-02-23 11:33:00,
2013-02-23 03:48:00,46.9,43.0,30.17,WSW,257,1.0,-999.0,87,-99.99,,,0.00,weatherlink.com 1.10,2013-02-23 11:48:00,
2013-02-23 04:03:00,47.4,43.0,30.16,NW,304,3.0,-999.0,84,-99.99,,,0.00,weatherlink.com 1.10,2013-02-23 12:03:00,
2013-02-23 04:18:00,47.5,40.0,30.17,NW,306,4.0,-999.0,76,-99.99,,,0.00,weatherlink.com 1.10,2013-02-23 12:18:00,
2013-02-23 04:33:00,47.1,40.0,30.17,NW,316,3.0,-999.0,75,-99.99,,,0.00,weatherlink.com 1.10,2013-02-23 12:33:00,
2013-02-23 04:48:00,47.2,39.0,30.17,NW,320,2.0,-999.0,73,-99.99,,,0.00,weatherlink.com 1.10,2013-02-23 12:48:00,
2013-02-23 05:03:00,46.8,39.0,30.18,West,278,2.0,-999.0,73,-99.99,,,0.00,weatherlink.com 1.10,2013-02-23 13:03:00,
2013-02-23 05:18:00,46.7,38.0,30.18,West,279,0.0,-999.0,72,-99.99,,,0.00,weatherlink.com 1.10,2013-02-23 13:18:00,
2013-02-23 05:33:00,46.2,38.0,30.19,WNW,284,6.0,-999.0,72,-99.99,,,0.00,weatherlink.com 1.10,2013-02-23 13:33:00,
2013-02-23 05:48:00,45.9,38.0,30.20,West,277,2.0,-999.0,73,-99.99,,,0.00,weatherlink.com 1.10,2013-02-23 13:48:00,
2013-02-23 06:03:00,45.5,38.0,30.20,NW,318,3.0,-999.0,74,-99.99,,,0.00,weatherlink.com 1.10,2013-02-23 14:03:00,
2013-02-23 06:18:00,45.8,37.0,30.21,NNW,344,0.0,-999.0,72,-99.99,,,0.00,weatherlink.com 1.10,2013-02-23 14:18:00,
2013-02-23 06:33:00,45.5,36.0,30.21,NW,313,1.0,-999.0,70,-99.99,,,0.00,weatherlink.com 1.10,2013-02-23 14:33:00,
2013-02-23 06:48:00,45.4,36.0,30.22,WNW,296,9.0,-999.0,69,-99.99,,,0.00,weatherlink.com 1.10,2013-02-23 14:48:00,
2013-02-23 07:03:00,-999.0,-99.9,30.21,North,-999,-999.0,-999.0,-999,-99.99,,,0.00,weatherlink.com 1.10,2013-02-23 15:03:00,
2013-02-23 07:19:00,-999.0,-99.9,30.22,North,-999,-999.0,-999.0,-999,-99.99,,,0.00,weatherlink.com 1.10,2013-02-23 15:19:00,
2013-02-23 07:34:00,-999.0,-99.9,30.23,North,-999,-999.0,-999.0,-999,-99.99,,,0.00,weatherlink.com 1.10,2013-02-23 15:34:00,
2013-02-23 07:49:00,-999.0,-99.9,30.24,North,-999,-999.0,-999.0,-999,-99.99,,,0.00,weatherlink.com 1.10,2013-02-23 15:49:00,
2013-02-23 08:04:00,-999.0,-99.9,30.24,North,-999,-999.0,-999.0,-999,-99.99,,,0.00,weatherlink.com 1.10,2013-02-23 16:04:00,
2013-02-23 08:19:00,-999.0,-99.9,30.24,North,-999,-999.0,-999.0,-999,-99.99,,,0.00,weatherlink.com 1.10,2013-02-23 16:19:00,
2013-02-23 08:34:00,-999.0,-99.9,30.25,North,-999,-999.0,-999.0,-999,-99.99,,,0.00,weatherlink.com 1.10,2013-02-23 16:34:00,
2013-02-23 08:49:00,-999.0,-99.9,30.26,North,-999,-999.0,-999.0,-999,-99.99,,,0.00,weatherlink.com 1.10,2013-02-23 16:49:00,
2013-02-23 09:04:00,49.2,33.0,30.26,North,350,11.0,-999.0,54,-99.99,,,0.00,weatherlink.com 1.10,2013-02-23 17:04:00,
2013-02-23 09:19:00,49.4,33.0,30.26,NW,320,14.0,-999.0,53,-99.99,,,0.00,weatherlink.com 1.10,2013-02-23 17:19:00,
2013-02-23 09:34:00,49.9,33.0,30.26,NNW,346,14.0,-999.0,52,-99.99,,,0.00,weatherlink.com 1.10,2013-02-23 17:34:00,
2013-02-23 09:49:00,50.4,32.0,30.25,North,355,10.0,-999.0,50,-99.99,,,0.00,weatherlink.com 1.10,2013-02-23 17:49:00,
2013-02-23 10:04:00,51.3,33.0,30.25,NNW,342,5.0,-999.0,50,-99.99,,,0.00,weatherlink.com 1.10,2013-02-23 18:04:00,
2013-02-23 10:19:00,52.2,32.0,30.25,NW,314,2.0,-999.0,46,-99.99,,,0.00,weatherlink.com 1.10,2013-02-23 18:19:00,
2013-02-23 10:34:00,52.7,33.0,30.25,NNW,329,12.0,-999.0,47,-99.99,,,0.00,weatherlink.com 1.10,2013-02-23 18:34:00,
2013-02-23 10:49:00,53.4,33.0,30.25,North,350,3.0,-999.0,46,-99.99,,,0.00,weatherlink.com 1.10,2013-02-23 18:49:00,
2013-02-23 11:04:00,53.9,33.0,30.25,NNW,340,1.0,-999.0,45,-99.99,,,0.00,weatherlink.com 1.10,2013-02-23 19:04:00,
2013-02-23 11:19:00,54.2,31.0,30.25,NNW,336,6.0,-999.0,42,-99.99,,,0.00,weatherlink.com 1.10,2013-02-23 19:19:00,
2013-02-23 11:34:00,54.8,32.0,30.25,NNW,331,11.0,-999.0,42,-99.99,,,0.00,weatherlink.com 1.10,2013-02-23 19:34:00,
2013-02-23 11:49:00,55.4,31.0,30.25,NW,323,4.0,-999.0,40,-99.99,,,0.00,weatherlink.com 1.10,2013-02-23 19:49:00,
2013-02-23 12:04:00,55.4,31.0,30.24,NW,313,3.0,-999.0,39,-99.99,,,0.00,weatherlink.com 1.10,2013-02-23 20:04:00,
2013-02-23 12:19:00,56.2,31.0,30.24,NNW,343,2.0,-999.0,38,-99.99,,,0.00,weatherlink.com 1.10,2013-02-23 20:19:00,
2013-02-23 12:34:00,55.8,32.0,30.23,NE,48,4.0,-999.0,40,-99.99,,,0.00,weatherlink.com 1.10,2013-02-23 20:34:00,
2013-02-23 12:49:00,56.4,30.0,30.22,NNW,331,3.0,-999.0,37,-99.99,,,0.00,weatherlink.com 1.10,2013-02-23 20:49:00,
2013-02-23 13:04:00,56.9,30.0,30.22,NNW,327,7.0,-999.0,36,-99.99,,,0.00,weatherlink.com 1.10,2013-02-23 21:04:00,
2013-02-23 13:19:00,56.7,29.0,30.21,North,11,4.0,-999.0,35,-99.99,,,0.00,weatherlink.com 1.10,2013-02-23 21:19:00,
2013-02-23 13:34:00,57.0,29.0,30.20,North,360,3.0,-999.0,35,-99.99,,,0.00,weatherlink.com 1.10,2013-02-23 21:34:00,
2013-02-23 13:49:00,57.4,30.0,30.20,NNW,344,7.0,-999.0,36,-99.99,,,0.00,weatherlink.com 1.10,2013-02-23 21:49:00,
2013-02-23 14:04:00,57.5,31.0,30.19,NNW,331,10.0,-999.0,36,-99.99,,,0.00,weatherlink.com 1.10,2013-02-23 22:04:00,
2013-02-23 14:19:00,57.4,30.0,30.19,West,271,5.0,-999.0,35,-99.99,,,0.00,weatherlink.com 1.10,2013-02-23 22:19:00,
2013-02-23 14:34:00,57.7,31.0,30.19,WNW,301,6.0,-999.0,37,-99.99,,,0.00,weatherlink.com 1.10,2013-02-23 22:34:00,
2013-02-23 14:49:00,57.8,31.0,30.19,NNE,30,4.0,-999.0,37,-99.99,,,0.00,weatherlink.com 1.10,2013-02-23 22:49:00,
2013-02-23 15:05:00,58.7,32.0,30.17,NNW,335,0.0,-999.0,36,-99.99,,,0.00,weatherlink.com 1.10,2013-02-23 23:05:00,
2013-02-23 15:20:00,58.7,32.0,30.17,NNW,327,10.0,-999.0,36,-99.99,,,0.00,weatherlink.com 1.10,2013-02-23 23:20:00,
2013-02-23 15:35:00,58.9,32.0,30.17,WNW,290,10.0,-999.0,36,-99.99,,,0.00,weatherlink.com 1.10,2013-02-23 23:35:00,
2013-02-23 15:50:00,58.6,32.0,30.16,NW,308,7.0,-999.0,37,-99.99,,,0.00,weatherlink.com 1.10,2013-02-23 23:50:00,
2013-02-23 16:05:00,58.4,32.0,30.17,NW,307,3.0,-999.0,37,-99.99,,,0.00,weatherlink.com 1.10,2013-02-24 00:05:00,
2013-02-23 16:20:00,58.2,32.0,30.17,NNW,330,5.0,-999.0,38,-99.99,,,0.00,weatherlink.com 1.10,2013-02-24 00:20:00,
2013-02-23 16:35:00,57.6,33.0,30.17,West,279,6.0,-999.0,40,-99.99,,,0.00,weatherlink.com 1.10,2013-02-24 00:35:00,
2013-02-23 16:50:00,57.7,33.0,30.16,NW,323,3.0,-999.0,40,-99.99,,,0.00,weatherlink.com 1.10,2013-02-24 00:50:00,
2013-02-23 17:05:00,56.4,35.0,30.18,WNW,298,5.0,-999.0,44,-99.99,,,0.00,weatherlink.com 1.10,2013-02-24 01:05:00,
2013-02-23 17:20:00,55.6,34.0,30.18,NNW,336,4.0,-999.0,45,-99.99,,,0.00,weatherlink.com 1.10,2013-02-24 01:20:00,
2013-02-23 17:35:00,54.5,34.0,30.19,NW,314,9.0,-999.0,47,-99.99,,,0.00,weatherlink.com 1.10,2013-02-24 01:35:00,
2013-02-23 17:50:00,53.3,34.0,30.19,NW,323,0.0,-999.0,49,-99.99,,,0.00,weatherlink.com 1.10,2013-02-24 01:50:00,
2013-02-23 18:05:00,52.4,34.0,30.20,NNW,336,2.0,-999.0,50,-99.99,,,0.00,weatherlink.com 1.10,2013-02-24 02:05:00,
2013-02-23 18:20:00,51.6,34.0,30.20,NNW,331,3.0,-999.0,52,-99.99,,,0.00,weatherlink.com 1.10,2013-02-24 02:20:00,
2013-02-23 18:35:00,50.7,34.0,30.20,NNW,336,0.0,-999.0,54,-99.99,,,0.00,weatherlink.com 1.10,2013-02-24 02:35:00,
2013-02-23 18:50:00,50.2,34.0,30.22,NNW,342,1.0,-999.0,55,-99.99,,,0.00,weatherlink.com 1.10,2013-02-24 02:50:00,
2013-02-23 19:05:00,49.8,34.0,30.21,NNW,332,5.0,-999.0,56,-99.99,,,0.00,weatherlink.com 1.10,2013-02-24 03:05:00,
2013-02-23 19:20:00,49.2,34.0,30.22,NNW,338,5.0,-999.0,57,-99.99,,,0.00,weatherlink.com 1.10,2013-02-24 03:20:00,
2013-02-23 19:35:00,48.8,34.0,30.22,NNW,329,3.0,-999.0,58,-99.99,,,0.00,weatherlink.com 1.10,2013-02-24 03:35:00,
2013-02-23 19:50:00,48.6,34.0,30.22,NNW,342,5.0,-999.0,58,-99.99,,,0.00,weatherlink.com 1.10,2013-02-24 03:50:00,
2013-02-23 20:05:00,48.4,34.0,30.22,NNW,338,7.0,-999.0,59,-99.99,,,0.00,weatherlink.com 1.10,2013-02-24 04:05:00,
2013-02-23 20:20:00,48.3,34.0,30.22,NNW,342,4.0,-999.0,59,-99.99,,,0.00,weatherlink.com 1.10,2013-02-24 04:20:00,
2013-02-23 20:35:00,47.8,34.0,30.23,North,349,1.0,-999.0,60,-99.99,,,0.00,weatherlink.com 1.10,2013-02-24 04:35:00,
2013-02-23 20:50:00,47.0,34.0,30.23,NNW,343,3.0,-999.0,61,-99.99,,,0.00,weatherlink.com 1.10,2013-02-24 04:50:00,
2013-02-23 21:05:00,46.6,34.0,30.24,North,350,0.0,-999.0,62,-99.99,,,0.00,weatherlink.com 1.10,2013-02-24 05:05:00,
2013-02-23 21:20:00,46.6,34.0,30.24,NNW,334,6.0,-999.0,63,-99.99,,,0.00,weatherlink.com 1.10,2013-02-24 05:20:00,
2013-02-23 21:35:00,46.4,34.0,30.24,NNW,338,5.0,-999.0,63,-99.99,,,0.00,weatherlink.com 1.10,2013-02-24 05:35:00,
2013-02-23 21:50:00,46.5,34.0,30.24,NNW,348,5.0,-999.0,63,-99.99,,,0.00,weatherlink.com 1.10,2013-02-24 05:50:00,
2013-02-23 22:06:00,46.0,34.0,30.24,NNW,342,0.0,-999.0,64,-99.99,,,0.00,weatherlink.com 1.10,2013-02-24 06:06:00,
2013-02-23 22:21:00,44.9,34.0,30.25,NNW,329,3.0,-999.0,67,-99.99,,,0.00,weatherlink.com 1.10,2013-02-24 06:21:00,
2013-02-23 22:36:00,44.8,35.0,30.25,NNW,333,3.0,-999.0,68,-99.99,,,0.00,weatherlink.com 1.10,2013-02-24 06:36:00,
2013-02-23 22:51:00,44.4,35.0,30.25,NNW,338,3.0,-999.0,69,-99.99,,,0.00,weatherlink.com 1.10,2013-02-24 06:51:00,
2013-02-23 23:06:00,44.0,35.0,30.25,NNE,20,3.0,-999.0,70,-99.99,,,0.00,weatherlink.com 1.10,2013-02-24 07:06:00,
2013-02-23 23:21:00,44.3,35.0,30.25,North,9,0.0,-999.0,70,-99.99,,,0.00,weatherlink.com 1.10,2013-02-24 07:21:00,
2013-02-23 23:36:00,44.2,35.0,30.25,NNW,339,2.0,-999.0,70,-99.99,,,0.00,weatherlink.com 1.10,2013-02-24 07:36:00,
2013-02-23 23:51:00,44.0,35.0,30.25,NNW,336,0.0,-999.0,70,-99.99,,,0.00,weatherlink.com 1.10,2013-02-24 07:51:00,